< < Back
Terminal Aerodrome Forecast


Current Version              Previous Versions:   1  2  3  4  5  6  7  8  9  

Terminal Aerodrome Forecast

541
FTUS42 KGSP 301300 AAA
TAFCLT
TAF AMD
KCLT 301312Z 3013/0112 00000KT 3SM BR SCT003
      TEMPO 3013/3014 1/2SM FG VV002
     FM301400 35003KT P6SM FEW050
     FM010100 17003KT P6SM SKC
     FM011000 00000KT 3SM BR FEW250=

Latest METAR

348
SAUS70 KWBC 301500
MTRCLT
METAR KCLT 301452Z 28003KT 10SM SCT004 20/17 A2996 RMK AO2 SLP140
T02000167 50002


USA.gov is the U.S. government's official web portal to all federal, state and local government web resources and services.